Flight Track Log - Related Links

Times and Time Zones

All times are in EDT time to prevent confusion due to time zone crossing. See the SLI2201 flight status page for this flight to view local times or setup timezone preferences in your user account.

Time Position Orientation Groundspeed Altitude Reporting Facility
EDT Latitude Longitude Course Direction KTS MPH feet Rate Location/Type
Wed 11:20:00 PM 25.9231 -100.3789 301° West  Level Estimated
Wed 11:21:00 PM 25.9592 -100.4470 301° West  Level Estimated
Wed 11:22:00 PM 25.9952 -100.5152 300° West  Level Estimated
Wed 11:23:00 PM 26.0312 -100.5834 300° West  Level Estimated
Wed 11:24:00 PM 26.0672 -100.6516 300° West  Level Estimated
Wed 11:25:00 PM 26.1032 -100.7199 300° West  Level Estimated
Wed 11:26:00 PM 26.1391 -100.7882 300° West  Level Estimated
Wed 11:27:00 PM 26.1750 -100.8566 300° West  Level Estimated
Wed 11:28:00 PM 26.2108 -100.9249 300° West  Level Estimated
Wed 11:29:00 PM 26.2467 -100.9934 300° West  Level Estimated
Wed 11:30:00 PM 26.2824 -101.0619 300° West  Level Estimated
Wed 11:31:00 PM 26.3182 -101.1304 300° West  Level Estimated
Wed 11:32:00 PM 26.3539 -101.1990 300° West  Level Estimated
Wed 11:33:00 PM 26.3896 -101.2676 300° West  Level Estimated
Wed 11:34:00 PM 26.4253 -101.3363 300° West  Level Estimated
Wed 11:35:00 PM 26.4609 -101.4050 300° West  Level Estimated
Wed 11:36:00 PM 26.4965 -101.4737 300° West  Level Estimated
Wed 11:37:00 PM 26.5320 -101.5425 300° West  Level Estimated
Wed 11:38:00 PM 26.5676 -101.6113 300° West  Level Estimated
Wed 11:39:00 PM 26.6031 -101.6802 300° West  Level Estimated
Wed 11:40:00 PM 26.6385 -101.7491 300° West  Level Estimated
Wed 11:41:00 PM 26.6739 -101.8181 300° West  Level Estimated
Wed 11:42:00 PM 26.7093 -101.8871 300° West  Level Estimated
Wed 11:43:00 PM 26.7447 -101.9561 300° West  Level Estimated
Wed 11:44:00 PM 26.7800 -102.0252 300° West  Level Estimated
Wed 11:45:00 PM 26.8153 -102.0943 300° West  Level Estimated
Wed 11:46:00 PM 26.8506 -102.1635 300° West  Level Estimated
Wed 11:47:00 PM 26.8858 -102.2327 300° West  Level Estimated
Wed 11:48:00 PM 26.9210 -102.3020 300° West  Level Estimated
Wed 11:49:00 PM 26.9561 -102.3713 300° West  Level Estimated
Wed 11:50:00 PM 26.9913 -102.4406 300° West  Level Estimated
Wed 11:51:00 PM 27.0264 -102.5100 300° West  Level Estimated
Wed 11:52:00 PM 27.0614 -102.5794 300° West  Level Estimated
Wed 11:53:00 PM 27.0964 -102.6489 300° West  Level Estimated
Wed 11:54:00 PM 27.1314 -102.7184 300° West  Level Estimated
Wed 11:55:00 PM 27.1664 -102.7880 299° West  Level Estimated
Wed 11:56:00 PM 27.2013 -102.8576 299° West  Level Estimated
Wed 11:57:00 PM 27.2362 -102.9272 299° West  Level Estimated
Wed 11:58:00 PM 27.2710 -102.9969 299° West  Level Estimated
Wed 11:59:00 PM 27.3058 -103.0666 299° West  Level Estimated
Thu 12:00:00 AM 27.3406 -103.1364 299° West  Level Estimated
Thu 12:01:00 AM 27.3754 -103.2062 299° West  Level Estimated
Thu 12:02:00 AM 27.4101 -103.2761 299° West  Level Estimated
Thu 12:03:00 AM 27.4448 -103.3460 299° West  Level Estimated
Thu 12:04:00 AM 27.4794 -103.4160 299° West  Level Estimated
Thu 12:05:00 AM 27.5140 -103.4860 299° West  Level Estimated
Thu 12:06:00 AM 27.5486 -103.5560 299° West  Level Estimated
Thu 12:07:00 AM 27.5831 -103.6261 299° West  Level Estimated
Thu 12:08:00 AM 27.6176 -103.6962 299° West  Level Estimated
Thu 12:09:00 AM 27.6521 -103.7664 299° West  Level Estimated
Thu 12:10:00 AM 27.6865 -103.8366 299° West  Level Estimated
Thu 12:11:00 AM 27.7209 -103.9069 299° West  Level Estimated
Thu 12:12:00 AM 27.7553 -103.9772 299° West  Level Estimated
Thu 12:13:00 AM 27.7896 -104.0475 299° West  Level Estimated
Thu 12:14:00 AM 27.8239 -104.1179 299° West  Level Estimated
Thu 12:15:00 AM 27.8581 -104.1884 299° West  Level Estimated
Thu 12:16:00 AM 27.8923 -104.2589 299° West  Level Estimated
Thu 12:17:00 AM 27.9265 -104.3294 299° West  Level Estimated
Thu 12:18:00 AM 27.9607 -104.4000 299° West  Level Estimated
Thu 12:19:00 AM 27.9948 -104.4706 299° West  Level Estimated
Thu 12:20:00 AM 28.0289 -104.5413 299° West  Level Estimated
Thu 12:21:00 AM 28.0629 -104.6120 299° West  Level Estimated
Thu 12:22:00 AM 28.0969 -104.6827 299° West  Level Estimated
Thu 12:23:00 AM 28.1308 -104.7535 299° West  Level Estimated
Thu 12:24:00 AM 28.1648 -104.8243 299° West  Level Estimated
Thu 12:25:00 AM 28.1987 -104.8952 298° West  Level Estimated
Thu 12:26:00 AM 28.2325 -104.9662 298° West  Level Estimated
Thu 12:27:00 AM 28.2663 -105.0371 298° West  Level Estimated
Thu 12:28:00 AM 28.3001 -105.1082 298° West  Level Estimated
Thu 12:29:00 AM 28.3339 -105.1792 298° West  Level Estimated
Thu 12:30:00 AM 28.3676 -105.2504 298° West  Level Estimated
Thu 12:31:00 AM 28.4012 -105.3215 298° West  Level Estimated
Thu 12:32:00 AM 28.4349 -105.3927 298° West  Level Estimated
Thu 12:33:00 AM 28.4685 -105.4640 298° West  Level Estimated
Thu 12:34:00 AM 28.5020 -105.5352 298° West  Level Estimated
Thu 12:35:00 AM 28.5355 -105.6066 298° West  Level Estimated
Thu 12:36:00 AM 28.5690 -105.6780 298° West  Level Estimated
Thu 12:37:00 AM 28.6025 -105.7494 298° West  Level Estimated
Thu 12:38:00 AM 28.6359 -105.8209 298° West  Level Estimated
Thu 12:39:00 AM 28.6693 -105.8924 298° West  Level Estimated
Thu 12:40:00 AM 28.7026 -105.9640 298° West  Level Estimated
Thu 12:41:00 AM 28.7029 -105.9646 298° West  Level Estimated
Thu 12:42:00 AM 28.7029 -105.9646 152° Southeast  Level Estimated
Thu 12:43:00 AM 28.7029 -105.9646 28° Northeast  Level Estimated
Thu 12:44:00 AM 28.7029 -105.9646 152° Southeast  Level Estimated
Thu 12:45:00 AM 28.7029 -105.9646 28° Northeast  Level Estimated
Thu 12:46:00 AM 28.7029 -105.9646 152° Southeast  Level Estimated
Thu 12:47:00 AM 28.7029 -105.9646 28° Northeast  Level Estimated
Thu 12:48:00 AM 28.7029 -105.9646 152° Southeast  Level Estimated
Thu 12:49:00 AM 28.7029 -105.9646 28° Northeast  Level Estimated
Thu 12:50:00 AM 28.7029 -105.9646 152° Southeast  Level Estimated
Thu 12:51:00 AM 28.7029 -105.9646 28° Northeast  Level Estimated
Thu 12:52:00 AM 28.7029 -105.9646 152° Southeast  Level Estimated
Thu 12:53:00 AM 28.7029 -105.9646 28° Northeast  Level Estimated
Thu 12:54:00 AM 28.7029 -105.9646 152° Southeast  Level Estimated
Thu 12:55:00 AM 28.7029 -105.9646 28° Northeast  Level Estimated
Thu 12:56:00 AM 28.7029 -105.9646 152° Southeast  Level Estimated

Login

Don't have an account? Register now (free) for customized features, flight alerts, and more!